sensor_id;sensor_type;location;lat;lon;timestamp;temperature;humidity
12907;DHT22;6521;50.498;8.474;2024-01-06T00:00:13;4.52;81.75
12907;DHT22;6521;50.498;8.474;2024-01-06T00:02:44;4.49;81.97
12907;DHT22;6521;50.498;8.474;2024-01-06T00:05:14;4.40;82.28
12907;DHT22;6521;50.498;8.474;2024-01-06T00:07:46;4.42;82.44
12907;DHT22;6521;50.498;8.474;2024-01-06T00:10:17;4.45;82.53
12907;DHT22;6521;50.498;8.474;2024-01-06T00:12:48;4.43;82.56
12907;DHT22;6521;50.498;8.474;2024-01-06T00:15:19;4.45;82.63
12907;DHT22;6521;50.498;8.474;2024-01-06T00:17:49;4.45;82.80
12907;DHT22;6521;50.498;8.474;2024-01-06T00:20:20;4.50;82.81
12907;DHT22;6521;50.498;8.474;2024-01-06T00:22:51;4.49;82.81
12907;DHT22;6521;50.498;8.474;2024-01-06T00:25:21;4.50;82.85
12907;DHT22;6521;50.498;8.474;2024-01-06T00:27:53;4.52;83.12
12907;DHT22;6521;50.498;8.474;2024-01-06T00:30:24;4.54;83.03
12907;DHT22;6521;50.498;8.474;2024-01-06T00:32:54;4.58;82.97
12907;DHT22;6521;50.498;8.474;2024-01-06T00:35:25;4.58;82.95
12907;DHT22;6521;50.498;8.474;2024-01-06T00:37:56;4.64;82.88
12907;DHT22;6521;50.498;8.474;2024-01-06T00:40:27;4.66;82.76
12907;DHT22;6521;50.498;8.474;2024-01-06T00:42:58;4.70;82.82
12907;DHT22;6521;50.498;8.474;2024-01-06T00:45:29;4.73;82.61
12907;DHT22;6521;50.498;8.474;2024-01-06T00:48:01;4.80;82.50
12907;DHT22;6521;50.498;8.474;2024-01-06T00:50:31;4.84;82.18
12907;DHT22;6521;50.498;8.474;2024-01-06T00:53:03;4.85;82.17
12907;DHT22;6521;50.498;8.474;2024-01-06T00:55:34;4.85;82.03
12907;DHT22;6521;50.498;8.474;2024-01-06T00:58:04;4.88;81.93
12907;DHT22;6521;50.498;8.474;2024-01-06T01:00:35;4.85;81.97
12907;DHT22;6521;50.498;8.474;2024-01-06T01:03:06;4.84;82.10
12907;DHT22;6521;50.498;8.474;2024-01-06T01:05:38;4.85;82.13
12907;DHT22;6521;50.498;8.474;2024-01-06T01:08:08;4.88;81.97
12907;DHT22;6521;50.498;8.474;2024-01-06T01:10:39;4.88;82.11
12907;DHT22;6521;50.498;8.474;2024-01-06T01:13:10;4.85;82.16
12907;DHT22;6521;50.498;8.474;2024-01-06T01:15:40;4.87;82.16
12907;DHT22;6521;50.498;8.474;2024-01-06T01:18:11;4.88;82.11
12907;DHT22;6521;50.498;8.474;2024-01-06T01:20:42;4.84;82.01
12907;DHT22;6521;50.498;8.474;2024-01-06T01:23:12;4.88;81.91
12907;DHT22;6521;50.498;8.474;2024-01-06T01:25:43;4.87;81.84
12907;DHT22;6521;50.498;8.474;2024-01-06T01:28:14;4.89;81.97
12907;DHT22;6521;50.498;8.474;2024-01-06T01:30:44;4.87;82.21
12907;DHT22;6521;50.498;8.474;2024-01-06T01:33:15;4.91;82.04
12907;DHT22;6521;50.498;8.474;2024-01-06T01:35:47;4.94;81.96
12907;DHT22;6521;50.498;8.474;2024-01-06T01:38:18;4.92;82.05
12907;DHT22;6521;50.498;8.474;2024-01-06T01:40:48;4.95;81.98
12907;DHT22;6521;50.498;8.474;2024-01-06T01:43:20;4.99;82.05
12907;DHT22;6521;50.498;8.474;2024-01-06T01:45:53;4.98;81.96
12907;DHT22;6521;50.498;8.474;2024-01-06T01:48:24;4.98;82.20
12907;DHT22;6521;50.498;8.474;2024-01-06T01:50:56;4.99;81.97
12907;DHT22;6521;50.498;8.474;2024-01-06T01:53:26;5.04;81.85
12907;DHT22;6521;50.498;8.474;2024-01-06T01:55:58;5.08;81.89
12907;DHT22;6521;50.498;8.474;2024-01-06T01:58:29;5.09;81.71
12907;DHT22;6521;50.498;8.474;2024-01-06T02:01:00;5.05;81.88
12907;DHT22;6521;50.498;8.474;2024-01-06T02:03:31;5.04;81.97
12907;DHT22;6521;50.498;8.474;2024-01-06T02:06:02;5.05;82.04
12907;DHT22;6521;50.498;8.474;2024-01-06T02:08:32;5.04;82.03
12907;DHT22;6521;50.498;8.474;2024-01-06T02:11:05;5.07;81.99
12907;DHT22;6521;50.498;8.474;2024-01-06T02:13:36;5.09;81.76
12907;DHT22;6521;50.498;8.474;2024-01-06T02:16:07;5.05;81.91
12907;DHT22;6521;50.498;8.474;2024-01-06T02:18:38;5.04;81.99
12907;DHT22;6521;50.498;8.474;2024-01-06T02:21:09;5.04;81.88
12907;DHT22;6521;50.498;8.474;2024-01-06T02:23:40;5.04;82.02
12907;DHT22;6521;50.498;8.474;2024-01-06T02:26:10;5.02;82.11
12907;DHT22;6521;50.498;8.474;2024-01-06T02:28:42;5.01;82.28
12907;DHT22;6521;50.498;8.474;2024-01-06T02:31:18;4.99;82.41
12907;DHT22;6521;50.498;8.474;2024-01-06T02:33:48;4.98;82.45
12907;DHT22;6521;50.498;8.474;2024-01-06T02:36:19;4.99;82.46
12907;DHT22;6521;50.498;8.474;2024-01-06T02:38:50;5.02;82.47
12907;DHT22;6521;50.498;8.474;2024-01-06T02:41:20;5.05;82.45
12907;DHT22;6521;50.498;8.474;2024-01-06T02:43:53;5.07;82.58
12907;DHT22;6521;50.498;8.474;2024-01-06T02:46:24;5.11;82.48
12907;DHT22;6521;50.498;8.474;2024-01-06T02:48:55;5.02;82.74
12907;DHT22;6521;50.498;8.474;2024-01-06T02:51:25;5.04;82.80
12907;DHT22;6521;50.498;8.474;2024-01-06T02:53:57;5.01;82.73
12907;DHT22;6521;50.498;8.474;2024-01-06T02:56:28;5.01;82.81
12907;DHT22;6521;50.498;8.474;2024-01-06T02:58:58;4.98;82.88
12907;DHT22;6521;50.498;8.474;2024-01-06T03:01:29;4.95;83.02
12907;DHT22;6521;50.498;8.474;2024-01-06T03:04:00;4.95;83.09
12907;DHT22;6521;50.498;8.474;2024-01-06T03:06:32;4.95;83.12
12907;DHT22;6521;50.498;8.474;2024-01-06T03:09:03;4.94;82.91
12907;DHT22;6521;50.498;8.474;2024-01-06T03:11:34;4.95;83.12
12907;DHT22;6521;50.498;8.474;2024-01-06T03:14:04;4.92;83.34
12907;DHT22;6521;50.498;8.474;2024-01-06T03:16:35;4.97;83.17
12907;DHT22;6521;50.498;8.474;2024-01-06T03:19:05;4.97;82.93
12907;DHT22;6521;50.498;8.474;2024-01-06T03:21:36;4.95;83.07
12907;DHT22;6521;50.498;8.474;2024-01-06T03:24:07;4.94;83.14
12907;DHT22;6521;50.498;8.474;2024-01-06T03:26:38;4.98;83.13
12907;DHT22;6521;50.498;8.474;2024-01-06T03:29:08;4.99;83.16
12907;DHT22;6521;50.498;8.474;2024-01-06T03:31:43;4.98;83.27
12907;DHT22;6521;50.498;8.474;2024-01-06T03:34:14;4.95;83.38
12907;DHT22;6521;50.498;8.474;2024-01-06T03:36:45;4.97;83.34
12907;DHT22;6521;50.498;8.474;2024-01-06T03:39:16;5.04;83.17
12907;DHT22;6521;50.498;8.474;2024-01-06T03:41:48;5.02;83.28
12907;DHT22;6521;50.498;8.474;2024-01-06T03:44:19;5.08;83.07
12907;DHT22;6521;50.498;8.474;2024-01-06T03:46:49;5.08;83.18
12907;DHT22;6521;50.498;8.474;2024-01-06T03:49:20;5.09;83.18
12907;DHT22;6521;50.498;8.474;2024-01-06T03:51:51;5.18;82.92
12907;DHT22;6521;50.498;8.474;2024-01-06T03:54:22;5.18;82.64
12907;DHT22;6521;50.498;8.474;2024-01-06T03:56:53;5.18;82.75
12907;DHT22;6521;50.498;8.474;2024-01-06T03:59:24;5.18;82.79
12907;DHT22;6521;50.498;8.474;2024-01-06T04:01:54;5.15;82.93
12907;DHT22;6521;50.498;8.474;2024-01-06T04:04:25;5.11;83.15
12907;DHT22;6521;50.498;8.474;2024-01-06T04:06:56;5.08;83.17
12907;DHT22;6521;50.498;8.474;2024-01-06T04:09:26;5.09;83.08
12907;DHT22;6521;50.498;8.474;2024-01-06T04:11:59;5.08;83.23
12907;DHT22;6521;50.498;8.474;2024-01-06T04:14:31;5.14;83.04
12907;DHT22;6521;50.498;8.474;2024-01-06T04:17:01;5.08;83.21
12907;DHT22;6521;50.498;8.474;2024-01-06T04:19:32;5.09;83.29
12907;DHT22;6521;50.498;8.474;2024-01-06T04:22:04;5.09;83.34
12907;DHT22;6521;50.498;8.474;2024-01-06T04:24:35;5.07;83.51
12907;DHT22;6521;50.498;8.474;2024-01-06T04:27:07;5.09;83.45
12907;DHT22;6521;50.498;8.474;2024-01-06T04:29:38;5.09;83.37
12907;DHT22;6521;50.498;8.474;2024-01-06T04:32:09;5.08;83.39
12907;DHT22;6521;50.498;8.474;2024-01-06T04:34:40;5.07;83.45
12907;DHT22;6521;50.498;8.474;2024-01-06T04:37:12;5.09;83.48
12907;DHT22;6521;50.498;8.474;2024-01-06T04:39:43;5.08;83.33
12907;DHT22;6521;50.498;8.474;2024-01-06T04:42:13;5.14;83.25
12907;DHT22;6521;50.498;8.474;2024-01-06T04:44:44;5.08;83.23
12907;DHT22;6521;50.498;8.474;2024-01-06T04:47:15;5.11;83.17
12907;DHT22;6521;50.498;8.474;2024-01-06T04:49:45;5.14;83.08
12907;DHT22;6521;50.498;8.474;2024-01-06T04:52:16;5.12;83.14
12907;DHT22;6521;50.498;8.474;2024-01-06T04:54:47;5.14;83.42
12907;DHT22;6521;50.498;8.474;2024-01-06T04:57:17;5.07;83.44
12907;DHT22;6521;50.498;8.474;2024-01-06T04:59:50;5.09;83.47
12907;DHT22;6521;50.498;8.474;2024-01-06T05:02:22;5.09;83.41
12907;DHT22;6521;50.498;8.474;2024-01-06T05:04:52;5.12;83.37
12907;DHT22;6521;50.498;8.474;2024-01-06T05:07:23;5.14;83.43
12907;DHT22;6521;50.498;8.474;2024-01-06T05:09:54;5.08;83.53
12907;DHT22;6521;50.498;8.474;2024-01-06T05:12:24;5.16;83.39
12907;DHT22;6521;50.498;8.474;2024-01-06T05:14:55;5.12;83.63
12907;DHT22;6521;50.498;8.474;2024-01-06T05:17:25;5.09;83.82
12907;DHT22;6521;50.498;8.474;2024-01-06T05:19:57;5.04;84.12
12907;DHT22;6521;50.498;8.474;2024-01-06T05:22:28;5.05;84.32
12907;DHT22;6521;50.498;8.474;2024-01-06T05:24:58;5.04;84.28
12907;DHT22;6521;50.498;8.474;2024-01-06T05:27:29;5.01;84.41
12907;DHT22;6521;50.498;8.474;2024-01-06T05:30:00;5.04;84.52
12907;DHT22;6521;50.498;8.474;2024-01-06T05:32:31;5.05;84.36
12907;DHT22;6521;50.498;8.474;2024-01-06T05:35:04;5.04;84.41
12907;DHT22;6521;50.498;8.474;2024-01-06T05:37:35;5.08;84.50
12907;DHT22;6521;50.498;8.474;2024-01-06T05:40:06;5.07;84.57
12907;DHT22;6521;50.498;8.474;2024-01-06T05:42:37;5.04;84.62
12907;DHT22;6521;50.498;8.474;2024-01-06T05:45:10;5.02;84.72
12907;DHT22;6521;50.498;8.474;2024-01-06T05:47:43;5.04;84.75
12907;DHT22;6521;50.498;8.474;2024-01-06T05:50:15;5.05;84.69
12907;DHT22;6521;50.498;8.474;2024-01-06T05:52:46;5.04;84.97
12907;DHT22;6521;50.498;8.474;2024-01-06T05:55:19;5.01;85.07
12907;DHT22;6521;50.498;8.474;2024-01-06T05:57:49;5.05;85.10
12907;DHT22;6521;50.498;8.474;2024-01-06T06:00:20;5.09;84.96
12907;DHT22;6521;50.498;8.474;2024-01-06T06:02:51;5.08;84.97
12907;DHT22;6521;50.498;8.474;2024-01-06T06:05:21;5.04;85.14
12907;DHT22;6521;50.498;8.474;2024-01-06T06:07:52;5.04;85.10
12907;DHT22;6521;50.498;8.474;2024-01-06T06:10:23;5.01;85.19
12907;DHT22;6521;50.498;8.474;2024-01-06T06:12:53;5.01;85.30
12907;DHT22;6521;50.498;8.474;2024-01-06T06:15:24;4.99;85.28
12907;DHT22;6521;50.498;8.474;2024-01-06T06:17:55;4.99;85.43
12907;DHT22;6521;50.498;8.474;2024-01-06T06:20:25;4.99;85.37
12907;DHT22;6521;50.498;8.474;2024-01-06T06:22:56;4.99;85.45
12907;DHT22;6521;50.498;8.474;2024-01-06T06:25:27;4.98;85.42
12907;DHT22;6521;50.498;8.474;2024-01-06T06:27:57;5.01;85.43
12907;DHT22;6521;50.498;8.474;2024-01-06T06:30:28;4.99;85.45
12907;DHT22;6521;50.498;8.474;2024-01-06T06:32:58;4.99;85.45
12907;DHT22;6521;50.498;8.474;2024-01-06T06:35:29;5.01;85.56
12907;DHT22;6521;50.498;8.474;2024-01-06T06:38:00;5.01;85.55
12907;DHT22;6521;50.498;8.474;2024-01-06T06:40:30;5.04;85.32
12907;DHT22;6521;50.498;8.474;2024-01-06T06:43:01;5.02;85.47
12907;DHT22;6521;50.498;8.474;2024-01-06T06:45:32;5.04;85.56
12907;DHT22;6521;50.498;8.474;2024-01-06T06:48:03;4.99;85.49
12907;DHT22;6521;50.498;8.474;2024-01-06T06:50:34;5.04;85.56
12907;DHT22;6521;50.498;8.474;2024-01-06T06:53:04;4.98;85.70
12907;DHT22;6521;50.498;8.474;2024-01-06T06:55:37;4.98;85.76
12907;DHT22;6521;50.498;8.474;2024-01-06T06:58:08;4.95;85.87
12907;DHT22;6521;50.498;8.474;2024-01-06T07:00:39;4.91;85.79
12907;DHT22;6521;50.498;8.474;2024-01-06T07:03:09;4.92;85.83
12907;DHT22;6521;50.498;8.474;2024-01-06T07:05:40;4.87;86.02
12907;DHT22;6521;50.498;8.474;2024-01-06T07:08:11;4.81;86.28
12907;DHT22;6521;50.498;8.474;2024-01-06T07:10:41;4.76;86.52
12907;DHT22;6521;50.498;8.474;2024-01-06T07:13:12;4.85;86.37
12907;DHT22;6521;50.498;8.474;2024-01-06T07:15:43;4.81;86.60
12907;DHT22;6521;50.498;8.474;2024-01-06T07:18:13;4.81;86.68
12907;DHT22;6521;50.498;8.474;2024-01-06T07:20:44;4.85;86.76
12907;DHT22;6521;50.498;8.474;2024-01-06T07:23:16;4.84;86.95
12907;DHT22;6521;50.498;8.474;2024-01-06T07:25:47;4.84;86.93
12907;DHT22;6521;50.498;8.474;2024-01-06T07:28:19;4.88;86.89
12907;DHT22;6521;50.498;8.474;2024-01-06T07:30:51;4.89;86.90
12907;DHT22;6521;50.498;8.474;2024-01-06T07:33:21;4.88;86.95
12907;DHT22;6521;50.498;8.474;2024-01-06T07:35:52;4.85;87.20
12907;DHT22;6521;50.498;8.474;2024-01-06T07:38:24;4.89;87.08
12907;DHT22;6521;50.498;8.474;2024-01-06T07:40:54;4.89;87.19
12907;DHT22;6521;50.498;8.474;2024-01-06T07:43:25;4.89;87.24
12907;DHT22;6521;50.498;8.474;2024-01-06T07:45:56;4.88;87.40
12907;DHT22;6521;50.498;8.474;2024-01-06T07:48:27;4.91;87.41
12907;DHT22;6521;50.498;8.474;2024-01-06T07:50:57;4.88;87.54
12907;DHT22;6521;50.498;8.474;2024-01-06T07:53:28;4.95;87.44
12907;DHT22;6521;50.498;8.474;2024-01-06T07:55:59;4.95;87.45
12907;DHT22;6521;50.498;8.474;2024-01-06T07:58:30;4.95;87.61
12907;DHT22;6521;50.498;8.474;2024-01-06T08:01:00;5.05;87.55
12907;DHT22;6521;50.498;8.474;2024-01-06T08:03:33;5.01;87.52
12907;DHT22;6521;50.498;8.474;2024-01-06T08:06:04;4.98;87.81
12907;DHT22;6521;50.498;8.474;2024-01-06T08:08:35;5.01;87.67
12907;DHT22;6521;50.498;8.474;2024-01-06T08:11:06;4.98;87.65
12907;DHT22;6521;50.498;8.474;2024-01-06T08:13:36;4.99;87.78
12907;DHT22;6521;50.498;8.474;2024-01-06T08:16:07;4.99;87.76
12907;DHT22;6521;50.498;8.474;2024-01-06T08:18:38;4.99;87.81
12907;DHT22;6521;50.498;8.474;2024-01-06T08:21:08;5.02;87.79
12907;DHT22;6521;50.498;8.474;2024-01-06T08:23:39;5.05;87.82
12907;DHT22;6521;50.498;8.474;2024-01-06T08:26:10;5.07;87.88
12907;DHT22;6521;50.498;8.474;2024-01-06T08:28:40;5.14;87.81
12907;DHT22;6521;50.498;8.474;2024-01-06T08:31:11;5.11;87.66
12907;DHT22;6521;50.498;8.474;2024-01-06T08:33:42;5.11;87.78
12907;DHT22;6521;50.498;8.474;2024-01-06T08:36:12;5.11;87.82
12907;DHT22;6521;50.498;8.474;2024-01-06T08:38:43;5.15;87.89
12907;DHT22;6521;50.498;8.474;2024-01-06T08:41:14;5.15;87.95
12907;DHT22;6521;50.498;8.474;2024-01-06T08:43:45;5.16;87.90
12907;DHT22;6521;50.498;8.474;2024-01-06T08:46:17;5.15;87.98
12907;DHT22;6521;50.498;8.474;2024-01-06T08:48:47;5.18;87.91
12907;DHT22;6521;50.498;8.474;2024-01-06T08:51:19;5.21;87.77
12907;DHT22;6521;50.498;8.474;2024-01-06T08:53:51;5.22;87.83
12907;DHT22;6521;50.498;8.474;2024-01-06T08:56:22;5.22;87.77
12907;DHT22;6521;50.498;8.474;2024-01-06T08:58:52;5.25;87.73
12907;DHT22;6521;50.498;8.474;2024-01-06T09:01:23;5.24;87.78
12907;DHT22;6521;50.498;8.474;2024-01-06T09:03:54;5.25;87.62
12907;DHT22;6521;50.498;8.474;2024-01-06T09:06:25;5.29;87.69
12907;DHT22;6521;50.498;8.474;2024-01-06T09:08:55;5.38;87.52
12907;DHT22;6521;50.498;8.474;2024-01-06T09:11:26;5.40;87.34
12907;DHT22;6521;50.498;8.474;2024-01-06T09:13:56;5.40;87.25
12907;DHT22;6521;50.498;8.474;2024-01-06T09:16:27;5.39;87.21
12907;DHT22;6521;50.498;8.474;2024-01-06T09:18:59;5.39;87.30
12907;DHT22;6521;50.498;8.474;2024-01-06T09:21:30;5.40;87.26
12907;DHT22;6521;50.498;8.474;2024-01-06T09:24:00;5.42;87.37
12907;DHT22;6521;50.498;8.474;2024-01-06T09:26:36;5.47;87.31
12907;DHT22;6521;50.498;8.474;2024-01-06T09:29:07;5.55;87.12
12907;DHT22;6521;50.498;8.474;2024-01-06T09:31:40;5.55;87.08
12907;DHT22;6521;50.498;8.474;2024-01-06T09:34:10;5.52;87.02
12907;DHT22;6521;50.498;8.474;2024-01-06T09:36:42;5.53;87.10
12907;DHT22;6521;50.498;8.474;2024-01-06T09:39:13;5.57;87.15
12907;DHT22;6521;50.498;8.474;2024-01-06T09:41:44;5.53;87.39
12907;DHT22;6521;50.498;8.474;2024-01-06T09:44:15;5.55;87.59
12907;DHT22;6521;50.498;8.474;2024-01-06T09:46:46;5.46;87.80
12907;DHT22;6521;50.498;8.474;2024-01-06T09:49:23;5.49;87.91
12907;DHT22;6521;50.498;8.474;2024-01-06T09:51:58;5.43;88.08
12907;DHT22;6521;50.498;8.474;2024-01-06T09:54:30;5.45;88.29
12907;DHT22;6521;50.498;8.474;2024-01-06T09:57:05;5.45;88.33
12907;DHT22;6521;50.498;8.474;2024-01-06T09:59:38;5.43;88.44
12907;DHT22;6521;50.498;8.474;2024-01-06T10:02:09;5.47;88.53
12907;DHT22;6521;50.498;8.474;2024-01-06T10:04:41;5.46;88.58
12907;DHT22;6521;50.498;8.474;2024-01-06T10:07:14;5.50;88.74
12907;DHT22;6521;50.498;8.474;2024-01-06T10:09:45;5.57;88.68
12907;DHT22;6521;50.498;8.474;2024-01-06T10:12:16;5.64;88.55
12907;DHT22;6521;50.498;8.474;2024-01-06T10:14:48;5.63;88.54
12907;DHT22;6521;50.498;8.474;2024-01-06T10:17:18;5.67;88.51
12907;DHT22;6521;50.498;8.474;2024-01-06T10:19:51;5.74;88.19
12907;DHT22;6521;50.498;8.474;2024-01-06T10:22:23;5.70;88.15
12907;DHT22;6521;50.498;8.474;2024-01-06T10:24:55;5.73;88.22
12907;DHT22;6521;50.498;8.474;2024-01-06T10:27:25;5.73;88.31
12907;DHT22;6521;50.498;8.474;2024-01-06T10:29:56;5.77;88.36
12907;DHT22;6521;50.498;8.474;2024-01-06T10:32:31;5.84;88.09
12907;DHT22;6521;50.498;8.474;2024-01-06T10:35:02;5.90;87.75
12907;DHT22;6521;50.498;8.474;2024-01-06T10:37:33;5.90;87.85
12907;DHT22;6521;50.498;8.474;2024-01-06T10:40:09;5.91;87.77
12907;DHT22;6521;50.498;8.474;2024-01-06T10:42:40;5.93;87.95
12907;DHT22;6521;50.498;8.474;2024-01-06T10:45:13;5.94;88.12
12907;DHT22;6521;50.498;8.474;2024-01-06T10:47:45;5.94;88.13
12907;DHT22;6521;50.498;8.474;2024-01-06T10:50:17;6.01;88.21
12907;DHT22;6521;50.498;8.474;2024-01-06T10:52:48;6.05;88.14
12907;DHT22;6521;50.498;8.474;2024-01-06T10:55:19;6.01;88.22
12907;DHT22;6521;50.498;8.474;2024-01-06T10:57:52;6.03;88.44
12907;DHT22;6521;50.498;8.474;2024-01-06T11:00:23;6.07;88.37
12907;DHT22;6521;50.498;8.474;2024-01-06T11:02:55;6.07;88.23
12907;DHT22;6521;50.498;8.474;2024-01-06T11:05:27;6.08;88.32
12907;DHT22;6521;50.498;8.474;2024-01-06T11:07:59;6.15;88.15
12907;DHT22;6521;50.498;8.474;2024-01-06T11:10:32;6.11;88.08
12907;DHT22;6521;50.498;8.474;2024-01-06T11:13:11;6.11;88.21
12907;DHT22;6521;50.498;8.474;2024-01-06T11:15:47;6.13;88.01
12907;DHT22;6521;50.498;8.474;2024-01-06T11:18:37;6.10;88.39
12907;DHT22;6521;50.498;8.474;2024-01-06T11:24:13;6.04;88.26
12907;DHT22;6521;50.498;8.474;2024-01-06T11:26:49;5.97;88.62
12907;DHT22;6521;50.498;8.474;2024-01-06T11:29:20;6.00;88.60
12907;DHT22;6521;50.498;8.474;2024-01-06T11:32:30;5.93;88.99
12907;DHT22;6521;50.498;8.474;2024-01-06T11:35:07;6.03;89.07
12907;DHT22;6521;50.498;8.474;2024-01-06T11:40:22;6.08;89.01
12907;DHT22;6521;50.498;8.474;2024-01-06T11:43:16;6.04;88.99
12907;DHT22;6521;50.498;8.474;2024-01-06T11:45:48;6.00;89.13
12907;DHT22;6521;50.498;8.474;2024-01-06T11:48:22;5.98;89.05
12907;DHT22;6521;50.498;8.474;2024-01-06T11:50:55;6.01;88.93
12907;DHT22;6521;50.498;8.474;2024-01-06T11:53:29;6.05;88.92
12907;DHT22;6521;50.498;8.474;2024-01-06T11:56:00;6.01;89.11
12907;DHT22;6521;50.498;8.474;2024-01-06T11:58:31;6.01;89.21
12907;DHT22;6521;50.498;8.474;2024-01-06T12:01:03;6.05;88.96
12907;DHT22;6521;50.498;8.474;2024-01-06T12:03:34;6.05;88.93
12907;DHT22;6521;50.498;8.474;2024-01-06T12:06:05;6.03;88.85
12907;DHT22;6521;50.498;8.474;2024-01-06T12:08:36;6.07;88.93
12907;DHT22;6521;50.498;8.474;2024-01-06T12:11:07;6.01;89.02
12907;DHT22;6521;50.498;8.474;2024-01-06T12:13:38;6.07;88.97
12907;DHT22;6521;50.498;8.474;2024-01-06T12:16:08;6.13;88.76
12907;DHT22;6521;50.498;8.474;2024-01-06T12:18:40;6.11;88.72
12907;DHT22;6521;50.498;8.474;2024-01-06T12:21:10;6.13;89.11
12907;DHT22;6521;50.498;8.474;2024-01-06T12:23:42;6.18;88.80
12907;DHT22;6521;50.498;8.474;2024-01-06T12:26:16;6.17;88.95
12907;DHT22;6521;50.498;8.474;2024-01-06T12:28:48;6.17;88.74
12907;DHT22;6521;50.498;8.474;2024-01-06T12:31:19;6.18;88.43
12907;DHT22;6521;50.498;8.474;2024-01-06T12:33:51;6.11;88.37
12907;DHT22;6521;50.498;8.474;2024-01-06T12:36:21;6.08;88.43
12907;DHT22;6521;50.498;8.474;2024-01-06T12:38:52;6.03;88.29
12907;DHT22;6521;50.498;8.474;2024-01-06T12:41:23;5.94;87.78
12907;DHT22;6521;50.498;8.474;2024-01-06T12:43:54;5.91;87.05
12907;DHT22;6521;50.498;8.474;2024-01-06T12:46:24;5.86;87.15
12907;DHT22;6521;50.498;8.474;2024-01-06T12:48:55;5.81;86.44
12907;DHT22;6521;50.498;8.474;2024-01-06T12:51:26;5.76;86.28
12907;DHT22;6521;50.498;8.474;2024-01-06T12:53:56;5.73;86.43
12907;DHT22;6521;50.498;8.474;2024-01-06T12:56:27;5.73;86.00
12907;DHT22;6521;50.498;8.474;2024-01-06T12:58:58;5.66;86.06
12907;DHT22;6521;50.498;8.474;2024-01-06T13:01:29;5.66;85.69
12907;DHT22;6521;50.498;8.474;2024-01-06T13:04:00;5.60;85.90
12907;DHT22;6521;50.498;8.474;2024-01-06T13:06:31;5.59;85.89
12907;DHT22;6521;50.498;8.474;2024-01-06T13:09:02;5.59;85.86
12907;DHT22;6521;50.498;8.474;2024-01-06T13:11:37;5.62;85.79
12907;DHT22;6521;50.498;8.474;2024-01-06T13:14:08;5.62;85.67
12907;DHT22;6521;50.498;8.474;2024-01-06T13:16:38;5.56;85.07
12907;DHT22;6521;50.498;8.474;2024-01-06T13:19:11;5.56;85.06
12907;DHT22;6521;50.498;8.474;2024-01-06T13:21:41;5.53;84.52
12907;DHT22;6521;50.498;8.474;2024-01-06T13:24:12;5.47;84.42
12907;DHT22;6521;50.498;8.474;2024-01-06T13:26:44;5.49;84.28
12907;DHT22;6521;50.498;8.474;2024-01-06T13:29:18;5.45;84.59
12907;DHT22;6521;50.498;8.474;2024-01-06T13:31:49;5.53;84.29
12907;DHT22;6521;50.498;8.474;2024-01-06T13:34:20;5.50;83.52
12907;DHT22;6521;50.498;8.474;2024-01-06T13:36:51;5.55;83.18
12907;DHT22;6521;50.498;8.474;2024-01-06T13:39:22;5.55;83.18
12907;DHT22;6521;50.498;8.474;2024-01-06T13:41:52;5.56;83.13
12907;DHT22;6521;50.498;8.474;2024-01-06T13:44:23;5.56;82.99
12907;DHT22;6521;50.498;8.474;2024-01-06T13:46:55;5.55;82.88
12907;DHT22;6521;50.498;8.474;2024-01-06T13:49:26;5.52;83.29
12907;DHT22;6521;50.498;8.474;2024-01-06T13:51:58;5.55;83.44
12907;DHT22;6521;50.498;8.474;2024-01-06T13:54:29;5.57;83.50
12907;DHT22;6521;50.498;8.474;2024-01-06T13:56:59;5.59;83.43
12907;DHT22;6521;50.498;8.474;2024-01-06T13:59:30;5.62;83.20
12907;DHT22;6521;50.498;8.474;2024-01-06T14:02:00;5.67;82.09
12907;DHT22;6521;50.498;8.474;2024-01-06T14:04:31;5.60;82.19
12907;DHT22;6521;50.498;8.474;2024-01-06T14:07:02;5.57;82.07
12907;DHT22;6521;50.498;8.474;2024-01-06T14:09:32;5.59;82.25
12907;DHT22;6521;50.498;8.474;2024-01-06T14:12:04;5.63;81.59
12907;DHT22;6521;50.498;8.474;2024-01-06T14:14:35;5.57;81.85
12907;DHT22;6521;50.498;8.474;2024-01-06T14:17:06;5.62;81.99
12907;DHT22;6521;50.498;8.474;2024-01-06T14:19:37;5.62;81.33
12907;DHT22;6521;50.498;8.474;2024-01-06T14:22:08;5.63;81.26
12907;DHT22;6521;50.498;8.474;2024-01-06T14:24:39;5.53;81.76
12907;DHT22;6521;50.498;8.474;2024-01-06T14:27:09;5.55;81.71
12907;DHT22;6521;50.498;8.474;2024-01-06T14:29:40;5.52;82.05
12907;DHT22;6521;50.498;8.474;2024-01-06T14:32:11;5.50;82.33
12907;DHT22;6521;50.498;8.474;2024-01-06T14:34:41;5.53;81.88
12907;DHT22;6521;50.498;8.474;2024-01-06T14:37:12;5.56;81.46
12907;DHT22;6521;50.498;8.474;2024-01-06T14:39:44;5.45;81.69
12907;DHT22;6521;50.498;8.474;2024-01-06T14:42:14;5.42;82.20
12907;DHT22;6521;50.498;8.474;2024-01-06T14:44:46;5.39;81.64
12907;DHT22;6521;50.498;8.474;2024-01-06T14:47:17;5.39;81.80
12907;DHT22;6521;50.498;8.474;2024-01-06T14:49:48;5.40;81.94
12907;DHT22;6521;50.498;8.474;2024-01-06T14:52:18;5.35;82.14
12907;DHT22;6521;50.498;8.474;2024-01-06T14:54:49;5.36;82.26
12907;DHT22;6521;50.498;8.474;2024-01-06T14:57:20;5.39;82.30
12907;DHT22;6521;50.498;8.474;2024-01-06T14:59:50;5.38;81.96
12907;DHT22;6521;50.498;8.474;2024-01-06T15:02:21;5.32;82.09
12907;DHT22;6521;50.498;8.474;2024-01-06T15:04:54;5.34;82.11
12907;DHT22;6521;50.498;8.474;2024-01-06T15:07:25;5.32;82.12
12907;DHT22;6521;50.498;8.474;2024-01-06T15:09:55;5.34;82.23
12907;DHT22;6521;50.498;8.474;2024-01-06T15:12:27;5.31;82.14
12907;DHT22;6521;50.498;8.474;2024-01-06T15:14:57;5.29;82.40
12907;DHT22;6521;50.498;8.474;2024-01-06T15:17:31;5.24;82.64
12907;DHT22;6521;50.498;8.474;2024-01-06T15:20:03;5.26;82.50
12907;DHT22;6521;50.498;8.474;2024-01-06T15:22:34;5.31;82.39
12907;DHT22;6521;50.498;8.474;2024-01-06T15:25:05;5.24;82.66
12907;DHT22;6521;50.498;8.474;2024-01-06T15:27:37;5.22;82.64
12907;DHT22;6521;50.498;8.474;2024-01-06T15:30:08;5.24;82.72
12907;DHT22;6521;50.498;8.474;2024-01-06T15:32:41;5.21;82.94
12907;DHT22;6521;50.498;8.474;2024-01-06T15:35:12;5.16;83.15
12907;DHT22;6521;50.498;8.474;2024-01-06T15:37:42;5.11;83.23
12907;DHT22;6521;50.498;8.474;2024-01-06T15:40:13;5.11;83.27
12907;DHT22;6521;50.498;8.474;2024-01-06T15:42:44;5.09;83.25
12907;DHT22;6521;50.498;8.474;2024-01-06T15:45:15;5.11;83.51
12907;DHT22;6521;50.498;8.474;2024-01-06T15:47:45;5.15;83.46
12907;DHT22;6521;50.498;8.474;2024-01-06T15:50:16;5.14;83.32
12907;DHT22;6521;50.498;8.474;2024-01-06T15:52:47;5.07;83.63
12907;DHT22;6521;50.498;8.474;2024-01-06T15:55:19;5.07;83.80
12907;DHT22;6521;50.498;8.474;2024-01-06T15:57:49;5.08;83.92
12907;DHT22;6521;50.498;8.474;2024-01-06T16:00:20;5.07;84.11
12907;DHT22;6521;50.498;8.474;2024-01-06T16:02:51;5.08;84.20
12907;DHT22;6521;50.498;8.474;2024-01-06T16:05:22;5.02;84.23
12907;DHT22;6521;50.498;8.474;2024-01-06T16:07:54;5.04;84.37
12907;DHT22;6521;50.498;8.474;2024-01-06T16:10:28;5.05;84.41
12907;DHT22;6521;50.498;8.474;2024-01-06T16:12:59;5.01;84.53
12907;DHT22;6521;50.498;8.474;2024-01-06T16:15:30;5.02;84.54
12907;DHT22;6521;50.498;8.474;2024-01-06T16:18:01;4.98;84.60
12907;DHT22;6521;50.498;8.474;2024-01-06T16:20:31;4.98;84.85
12907;DHT22;6521;50.498;8.474;2024-01-06T16:23:02;5.02;84.77
12907;DHT22;6521;50.498;8.474;2024-01-06T16:25:37;5.01;84.88
12907;DHT22;6521;50.498;8.474;2024-01-06T16:28:07;4.97;85.03
12907;DHT22;6521;50.498;8.474;2024-01-06T16:30:41;4.97;85.21
12907;DHT22;6521;50.498;8.474;2024-01-06T16:33:12;5.01;85.27